Airfield :
LOGIN :

Register | Disclaimer

   EN    FR    IT 

 










Legend :    VFR   Marginal VFR   IFR   Intensive IFR   Very Intensive IFR
Visi :
Ceiling :
>= 8 km
>= 3000ft
5 to 8 km
1000 to 3000 ft
1500m to 5 km
500 to 1000 ft
800 to 1500m
200 to 500 ft
< 800m
< 200 ft
Symbols :   Thunderstorms  Fog  Heavy snow  Heavy precipitations  Wind > 20 kt
SIGMETs :     Misc.  Thunderstorms  Icing  Turbulence  Mountain Waves  Volcanic Ashes






- Airport Elevation : 1504 ft
- IATA code : PNA


LEPP - Noain Pamplona

CURRENT METAR :
  • 221030Z 19007KT 150V220 9999 SCT030 BKN059 13/07 Q1016

EXPIRED METARs :
  • 221000Z 20006KT 150V230 9999 SCT025 SCT059 13/08 Q1016
  • 220930Z 19003KT 130V250 9999 SCT025 SCT059 12/08 Q1016
  • 220900Z 21003KT 170V260 9999 FEW020 SCT055 13/08 Q1015
  • 220830Z 13006KT 9999 FEW020 SCT045 BKN050 11/07 Q1015
  • 220800Z 13005KT 090V180 9999 FEW020 BKN045 OVC055 11/08 Q1015

TAF TAF LEPP
Valid from the 22 at 09:00 until the 23 at 09:00 UTC


220800Z 2209/2309 VRB06KT 9999 FEW030 BKN045 TX16/2215Z TN04/2305Z
PROB30
TEMPO 2209/2213 4000 -RA
TEMPO 2210/2219 16010KT
TEMPO 2221/2306 3000 BR BCFG
PROB30
TEMPO 2221/2305 1000 BCFG BKN002
BECMG 2308/2309 16012KT



MET'MAP, your aeronautical weather chart ! - Copyright ORBIFLY December 2007 - Disclaimer

ORBIFLY MET'MAP TEAM :

Programming & Development : Alexandra Zaïnal
Concept & original design : Baudouin d'Aumeries
Assistance for programming : Marc-Olivier Méhu
Technical & hardware support : Manuel Goepfert

Contact : metmap@orbifly.com




SOURCES & CREDITS :

   NOAA